Time;durP1;ratioP1;P1;durP2;ratioP2;P2;SDS_P1;SDS_P2;PMS_P1;PMS_P2;Temp;Humidity;BMP_temperature;BMP_pressure;BME280_temperature;BME280_humidity;BME280_pressure;Samples;Min_cycle;Max_cycle;Signal;HPM_P1;HPM_P2
2023/05/17 00:01:43;;;;;;;25.98;9.15;;;;;;;15.66;76.85;94589.19;5048462;28;20044;-77
2023/05/17 00:04:09;;;;;;;24.08;8.43;;;;;;;15.91;77.09;94624.19;5037838;28;20033;-77
2023/05/17 00:06:34;;;;;;;23.92;9.13;;;;;;;15.65;77.12;94614.34;5045087;28;20041;-76
2023/05/17 00:09:00;;;;;;;24.33;9.10;;;;;;;15.83;77.56;94647.19;5050266;28;20035;-77
2023/05/17 00:11:25;;;;;;;23.05;9.30;;;;;;;15.88;77.65;94646.22;5047153;28;20079;-77
2023/05/17 00:13:51;;;;;;;21.25;8.60;;;;;;;15.83;77.62;94641.84;5046468;28;20029;-77
2023/05/17 00:16:16;;;;;;;24.02;9.10;;;;;;;15.68;77.75;94616.41;5048362;28;20044;-77
2023/05/17 00:18:41;;;;;;;24.90;9.57;;;;;;;15.82;77.88;94629.56;5045058;28;20534;-77
2023/05/17 00:21:07;;;;;;;25.98;9.38;;;;;;;15.55;77.44;94596.00;5050409;28;20025;-77
2023/05/17 00:23:32;;;;;;;28.00;9.60;;;;;;;15.66;78.21;94618.59;5046505;28;20049;-77
2023/05/17 00:25:58;;;;;;;27.25;9.40;;;;;;;15.77;78.06;94624.41;5073659;28;20435;-77
2023/05/17 00:28:23;;;;;;;26.77;9.13;;;;;;;15.62;77.91;94607.00;5048748;28;20451;-77
2023/05/17 00:30:49;;;;;;;21.73;8.82;;;;;;;15.73;77.95;94644.84;5082426;28;20112;-77
2023/05/17 00:33:14;;;;;;;22.98;9.18;;;;;;;15.67;77.99;94635.44;5047661;28;20137;-77
2023/05/17 00:35:40;;;;;;;21.92;8.43;;;;;;;15.33;77.72;94596.94;5045362;28;20033;-76
2023/05/17 00:38:05;;;;;;;19.88;8.98;;;;;;;15.60;78.06;94637.81;5049120;28;20028;-76
2023/05/17 00:40:30;;;;;;;18.70;8.30;;;;;;;15.23;77.88;94585.81;5082300;28;20032;-76
2023/05/17 00:42:56;;;;;;;20.58;7.72;;;;;;;15.26;77.85;94596.63;5049378;28;20103;-76
2023/05/17 00:45:22;;;;;;;24.55;9.25;;;;;;;15.12;77.29;94574.66;5050085;28;20133;-76
2023/05/17 00:47:47;;;;;;;21.98;8.68;;;;;;;15.31;77.58;94623.19;5043725;28;20537;-76
2023/05/17 00:50:13;;;;;;;20.23;9.00;;;;;;;15.13;77.82;94594.91;5049026;28;20033;-76
2023/05/17 00:52:38;;;;;;;22.38;9.57;;;;;;;15.08;78.55;94600.44;5046759;28;20044;-77
2023/05/17 00:55:04;;;;;;;22.60;8.60;;;;;;;14.88;78.45;94569.78;5048135;28;20033;-76
2023/05/17 00:57:31;;;;;;;24.15;7.97;;;;;;;15.28;77.76;94650.53;5049967;28;20024;-76
2023/05/17 00:59:57;;;;;;;21.75;8.20;;;;;;;15.13;77.74;94626.97;5033849;28;20024;-76
2023/05/17 01:02:22;;;;;;;21.92;8.27;;;;;;;15.09;78.11;94631.38;5047085;28;20033;-77
2023/05/17 01:04:48;;;;;;;21.58;8.63;;;;;;;15.20;78.17;94645.19;5049491;28;20110;-76
2023/05/17 01:07:14;;;;;;;23.50;7.85;;;;;;;15.24;78.11;94646.16;5049405;28;20130;-76
2023/05/17 01:09:41;;;;;;;19.00;7.88;;;;;;;15.13;78.12;94624.31;5028097;28;20037;-76
2023/05/17 01:12:23;;;;;;;35.70;8.65;;;;;;;15.02;77.82;94610.50;5041723;28;20095;-77
2023/05/17 01:15:06;;;;;;;21.95;8.73;;;;;;;15.19;77.81;94640.94;5044226;28;20025;-76
2023/05/17 01:17:38;;;;;;;25.52;8.32;;;;;;;15.18;77.70;94639.41;5041408;28;20033;-76
2023/05/17 01:20:11;;;;;;;24.25;9.05;;;;;;;14.92;77.91;94591.31;5049699;28;20475;-76
2023/05/17 01:22:52;;;;;;;23.73;8.50;;;;;;;14.86;77.79;94595.25;5049082;28;20039;-77
2023/05/17 01:25:19;;;;;;;20.35;8.52;;;;;;;14.98;77.87;94632.78;5048126;28;20083;-77
2023/05/17 01:27:48;;;;;;;25.27;7.72;;;;;;;14.71;77.75;94596.50;5048682;28;20107;-77
2023/05/17 01:30:16;;;;;;;33.45;8.55;;;;;;;14.77;77.37;94605.94;5048972;28;20033;-77
2023/05/17 01:32:43;;;;;;;22.15;7.40;;;;;;;14.59;77.68;94569.63;5041699;28;20070;-77
2023/05/17 01:35:11;;;;;;;24.83;8.05;;;;;;;14.77;78.29;94599.81;5047295;28;20136;-77
2023/05/17 01:37:37;;;;;;;21.98;8.38;;;;;;;14.72;78.66;94592.75;5042797;28;20029;-77
2023/05/17 01:40:04;;;;;;;19.88;7.00;;;;;;;14.86;78.29;94613.94;5047906;28;20087;-77
2023/05/17 01:42:31;;;;;;;20.70;7.15;;;;;;;14.74;78.12;94603.09;5047241;28;20040;-77
2023/05/17 01:45:16;;;;;;;26.90;7.90;;;;;;;14.81;78.46;94612.19;5068390;28;20539;-77
2023/05/17 01:47:56;;;;;;;19.27;8.45;;;;;;;14.95;78.58;94642.19;5046624;28;20477;-77
2023/05/17 01:50:28;;;;;;;23.43;8.23;;;;;;;14.85;78.60;94615.03;5047342;28;20071;-77
2023/05/17 01:53:00;;;;;;;23.40;7.70;;;;;;;14.97;78.25;94637.34;5047480;28;20051;-77
2023/05/17 01:55:34;;;;;;;30.08;8.02;;;;;;;14.97;78.15;94633.88;5042955;28;20401;-77
2023/05/17 01:58:02;;;;;;;33.13;8.43;;;;;;;14.73;78.54;94596.16;5042935;28;20171;-77
2023/05/17 02:00:28;;;;;;;19.52;8.13;;;;;;;14.92;78.63;94620.69;5052471;28;20040;-79
2023/05/17 02:02:54;;;;;;;27.85;8.25;;;;;;;14.94;78.93;94635.31;5083458;28;20108;-79
2023/05/17 02:05:19;;;;;;;21.98;8.65;;;;;;;14.26;78.87;94538.03;5049390;28;20144;-79
2023/05/17 02:07:45;;;;;;;24.30;7.68;;;;;;;14.73;78.51;94601.50;5082977;28;20044;-79
2023/05/17 02:10:10;;;;;;;27.73;8.55;;;;;;;14.77;77.86;94613.16;5015393;28;20486;-79
2023/05/17 02:12:36;;;;;;;29.13;8.45;;;;;;;14.89;77.38;94640.00;5049945;28;20079;-79
2023/05/17 02:15:01;;;;;;;24.02;8.02;;;;;;;14.76;77.15;94625.69;5050235;28;20072;-79
2023/05/17 02:17:27;;;;;;;27.95;8.15;;;;;;;14.69;77.40;94612.03;5046622;28;20033;-79
2023/05/17 02:19:52;;;;;;;36.00;8.68;;;;;;;14.71;77.85;94620.53;5035190;28;20068;-79
2023/05/17 02:22:18;;;;;;;23.70;7.55;;;;;;;14.68;77.93;94607.78;5083308;28;20524;-79
2023/05/17 02:24:43;;;;;;;25.13;8.57;;;;;;;14.55;77.44;94592.72;5082733;28;20053;-78
2023/05/17 02:27:08;;;;;;;25.77;8.15;;;;;;;14.62;77.13;94609.06;5047954;28;20491;-79
2023/05/17 02:29:35;;;;;;;21.50;8.77;;;;;;;14.71;77.59;94627.75;5049402;28;20041;-79
2023/05/17 02:32:00;;;;;;;20.35;7.20;;;;;;;14.54;76.94;94607.94;5041261;28;20064;-79
2023/05/17 02:34:26;;;;;;;25.10;9.55;;;;;;;14.43;77.19;94593.31;5045007;28;20099;-79
2023/05/17 02:36:51;;;;;;;23.92;9.15;;;;;;;14.60;77.37;94628.03;5050911;28;20045;-79
2023/05/17 02:39:17;;;;;;;24.35;9.05;;;;;;;14.60;77.34;94621.91;5037349;28;20044;-80
2023/05/17 02:41:42;;;;;;;26.63;8.02;;;;;;;14.40;77.66;94591.28;5031326;28;20492;-79
2023/05/17 02:44:08;;;;;;;22.85;8.90;;;;;;;14.45;77.64;94606.34;5046763;28;20036;-79
2023/05/17 02:46:33;;;;;;;20.63;8.70;;;;;;;14.34;77.66;94605.84;5049786;28;20036;-80
2023/05/17 02:48:59;;;;;;;26.85;9.18;;;;;;;14.40;77.38;94620.63;5050060;28;20033;-79
2023/05/17 02:51:24;;;;;;;28.83;8.63;;;;;;;13.86;77.49;94531.19;5049106;28;20033;-79
2023/05/17 02:53:50;;;;;;;24.65;8.65;;;;;;;14.35;77.57;94617.25;5035637;28;20029;-79
2023/05/17 02:56:15;;;;;;;27.00;8.93;;;;;;;14.30;77.48;94629.66;5051188;28;20235;-80
2023/05/17 02:58:40;;;;;;;24.52;9.32;;;;;;;14.37;77.57;94633.75;5048673;28;20044;-79
2023/05/17 03:01:06;;;;;;;28.70;10.07;;;;;;;14.36;77.54;94642.84;5048756;28;20079;-80
2023/05/17 03:03:31;;;;;;;24.38;9.70;;;;;;;14.13;77.89;94604.81;5048760;28;20149;-80
2023/05/17 03:06:01;;;;;;;28.92;10.77;;;;;;;13.76;77.46;94550.91;5049253;28;20076;-80
2023/05/17 03:08:26;;;;;;;31.75;11.30;;;;;;;14.23;77.58;94629.34;5049481;28;20404;-80
2023/05/17 03:10:52;;;;;;;27.17;11.20;;;;;;;14.41;77.49;94664.88;5036107;28;20029;-80
2023/05/17 03:13:17;;;;;;;28.50;11.48;;;;;;;14.29;77.47;94651.31;5043658;28;20036;-80
2023/05/17 03:15:43;;;;;;;26.52;11.18;;;;;;;14.37;77.80;94661.22;5049184;28;20033;-80
2023/05/17 03:18:08;;;;;;;31.67;12.75;;;;;;;13.56;77.56;94540.03;5051000;28;20471;-80
2023/05/17 03:20:33;;;;;;;27.92;11.05;;;;;;;14.47;77.06;94678.88;5034366;28;20120;-80
2023/05/17 03:22:59;;;;;;;19.27;11.10;;;;;;;14.21;76.69;94652.06;5046483;28;20064;-80
2023/05/17 03:25:24;;;;;;;33.90;12.57;;;;;;;13.77;76.74;94603.13;5050353;28;20037;-80
2023/05/17 03:27:50;;;;;;;24.75;11.85;;;;;;;13.80;76.95;94594.53;5048695;28;20044;-80
2023/05/17 03:30:15;;;;;;;27.98;11.70;;;;;;;13.67;77.26;94567.94;5047183;28;20044;-80
2023/05/17 03:32:40;;;;;;;36.85;12.82;;;;;;;14.29;77.02;94670.75;5031806;28;20041;-80
2023/05/17 03:35:07;;;;;;;30.92;11.90;;;;;;;14.10;76.54;94618.78;5049840;28;20025;-80
2023/05/17 03:37:33;;;;;;;35.33;12.52;;;;;;;14.30;77.14;94664.34;5050651;28;20071;-80
2023/05/17 03:39:58;;;;;;;29.23;13.85;;;;;;;14.12;78.00;94652.03;5028953;28;20064;-80
2023/05/17 03:42:23;;;;;;;37.20;12.73;;;;;;;14.17;78.10;94654.56;5052261;28;20117;-80
2023/05/17 03:44:49;;;;;;;32.67;13.68;;;;;;;14.22;78.01;94650.97;5048539;28;20028;-80
2023/05/17 03:47:15;;;;;;;32.40;14.20;;;;;;;14.28;78.03;94658.53;5048741;28;20037;-80
2023/05/17 03:49:42;;;;;;;28.77;13.52;;;;;;;14.13;78.52;94631.47;5049714;28;20040;-80
2023/05/17 03:52:07;;;;;;;28.20;14.48;;;;;;;14.10;78.09;94616.13;5038147;28;20022;-80
2023/05/17 03:54:32;;;;;;;29.30;14.73;;;;;;;13.71;77.42;94567.03;5030062;28;20083;-81
2023/05/17 03:56:58;;;;;;;38.97;16.60;;;;;;;13.89;77.30;94587.31;5028812;28;20033;-80
2023/05/17 03:59:23;;;;;;;36.83;16.25;;;;;;;14.43;77.26;94681.34;5043527;28;20064;-80
2023/05/17 04:01:49;;;;;;;35.85;16.23;;;;;;;14.40;77.50;94681.19;5030530;28;20057;-80
2023/05/17 04:04:14;;;;;;;26.80;16.27;;;;;;;14.39;77.85;94674.28;5048734;28;20028;-79
2023/05/17 04:06:40;;;;;;;27.42;16.23;;;;;;;13.69;77.14;94565.78;5045150;28;20431;-80
2023/05/17 04:09:06;;;;;;;33.90;16.60;;;;;;;14.30;77.18;94663.56;5044629;28;20024;-80
2023/05/17 04:11:33;;;;;;;30.65;16.15;;;;;;;14.48;77.15;94677.78;5043260;28;20039;-80
2023/05/17 04:13:58;;;;;;;31.13;18.20;;;;;;;14.65;77.56;94701.81;5042463;28;20033;-80
2023/05/17 04:16:23;;;;;;;32.22;17.23;;;;;;;14.60;77.15;94686.75;5040996;28;20565;-80
2023/05/17 04:18:51;;;;;;;30.83;17.13;;;;;;;14.51;77.58;94655.78;5031652;28;20123;-79
2023/05/17 04:21:18;;;;;;;34.80;18.30;;;;;;;14.49;77.94;94658.78;5037599;28;20067;-80
2023/05/17 04:23:43;;;;;;;35.15;17.75;;;;;;;14.83;77.50;94681.28;5032491;28;20072;-79
2023/05/17 04:26:09;;;;;;;37.25;18.95;;;;;;;14.39;78.01;94612.94;5015311;28;20168;-80
2023/05/17 04:28:35;;;;;;;38.15;20.38;;;;;;;14.80;77.43;94671.25;5036917;28;20372;-80
2023/05/17 04:31:01;;;;;;;37.25;20.25;;;;;;;14.84;77.29;94672.19;5035521;28;20933;-80
2023/05/17 04:33:26;;;;;;;37.08;20.10;;;;;;;14.92;77.52;94690.09;5025119;28;20068;-80
2023/05/17 04:35:55;;;;;;;37.45;22.05;;;;;;;14.44;77.39;94615.44;5035453;28;20128;-81
2023/05/17 04:38:21;;;;;;;35.10;21.58;;;;;;;14.84;77.45;94664.19;5036484;28;20036;-80
2023/05/17 04:40:46;;;;;;;45.25;21.60;;;;;;;14.80;76.92;94649.91;5037101;28;20028;-79
2023/05/17 04:43:12;;;;;;;40.33;21.08;;;;;;;14.93;77.40;94687.13;5037825;28;20491;-80
2023/05/17 04:45:39;;;;;;;39.90;22.10;;;;;;;14.94;77.24;94669.22;5042235;28;20460;-80
2023/05/17 04:48:05;;;;;;;34.70;20.55;;;;;;;14.83;76.61;94660.72;5067492;28;20450;-80
2023/05/17 04:50:31;;;;;;;52.78;23.20;;;;;;;15.03;76.96;94668.13;5041577;28;20039;-80
2023/05/17 04:52:57;;;;;;;41.00;20.20;;;;;;;14.62;76.80;94588.50;5039166;28;20459;-79
2023/05/17 04:55:24;;;;;;;43.58;21.83;;;;;;;14.59;77.24;94588.31;5039487;28;20032;-80
2023/05/17 04:57:50;;;;;;;39.13;21.02;;;;;;;14.79;76.66;94593.06;5030919;28;20626;-82
2023/05/17 05:00:16;;;;;;;45.15;21.98;;;;;;;13.97;76.68;94491.69;5033570;28;20131;-81
2023/05/17 05:02:41;;;;;;;55.97;23.17;;;;;;;15.03;76.77;94649.44;5033587;28;20108;-81
2023/05/17 05:05:10;;;;;;;48.22;23.30;;;;;;;14.79;76.58;94603.75;5036784;28;20147;-82
2023/05/17 05:07:38;;;;;;;33.38;21.38;;;;;;;14.87;75.97;94612.84;5038588;28;20052;-83
2023/05/17 05:10:05;;;;;;;41.55;21.60;;;;;;;15.27;75.77;94658.84;5036090;28;20122;-81
2023/05/17 05:12:30;;;;;;;30.60;20.75;;;;;;;15.35;76.55;94692.81;5034664;28;20053;-82
2023/05/17 05:14:56;;;;;;;45.85;21.45;;;;;;;15.22;75.67;94661.69;5036843;28;20036;-80
2023/05/17 05:17:21;;;;;;;34.80;21.02;;;;;;;15.20;75.32;94639.84;5031971;28;20029;-82
2023/05/17 05:19:47;;;;;;;43.58;21.50;;;;;;;15.42;75.34;94666.38;5032333;28;20092;-80
2023/05/17 05:22:12;;;;;;;39.85;21.88;;;;;;;15.39;75.19;94667.81;5028088;28;20056;-80
2023/05/17 05:24:37;;;;;;;38.13;21.23;;;;;;;14.81;74.77;94587.38;5029799;28;20064;-80
2023/05/17 05:27:03;;;;;;;36.72;20.08;;;;;;;15.13;75.41;94640.31;5035676;28;20502;-80
2023/05/17 05:29:28;;;;;;;47.28;21.40;;;;;;;15.38;75.51;94676.94;5055178;28;20507;-80
2023/05/17 05:31:54;;;;;;;36.75;18.63;;;;;;;14.73;75.48;94562.25;5039998;28;20455;-80
2023/05/17 05:34:19;;;;;;;38.03;20.85;;;;;;;15.60;75.01;94685.91;5038295;28;20045;-79
2023/05/17 05:36:45;;;;;;;52.75;22.85;;;;;;;15.32;75.34;94632.78;5034889;28;20041;-79
2023/05/17 05:39:11;;;;;;;55.35;23.73;;;;;;;15.75;74.58;94675.50;5036045;28;20531;-80
2023/05/17 05:41:37;;;;;;;49.03;21.63;;;;;;;15.68;74.28;94661.84;5036203;28;20086;-79
2023/05/17 05:44:02;;;;;;;45.50;21.05;;;;;;;15.99;74.24;94695.59;5036044;28;20566;-80
2023/05/17 05:46:28;;;;;;;52.70;21.17;;;;;;;16.02;74.17;94701.06;5020829;28;20037;-80
2023/05/17 05:48:53;;;;;;;46.05;22.55;;;;;;;15.99;73.99;94674.19;5037480;28;20427;-80
2023/05/17 05:51:19;;;;;;;41.83;21.40;;;;;;;15.96;73.20;94672.94;5038645;28;20064;-80
2023/05/17 05:53:44;;;;;;;35.92;19.83;;;;;;;16.01;73.24;94664.75;5034070;28;20041;-79
2023/05/17 05:56:10;;;;;;;39.15;20.23;;;;;;;16.29;72.39;94701.78;5036240;28;20029;-79
2023/05/17 05:58:36;;;;;;;40.65;18.85;;;;;;;16.28;72.77;94692.97;5036510;28;20103;-79
2023/05/17 06:01:01;;;;;;;42.58;19.75;;;;;;;16.19;72.88;94676.16;5032034;28;20041;-80
2023/05/17 06:03:27;;;;;;;56.38;19.60;;;;;;;16.35;71.46;94713.88;5036109;28;20041;-80
2023/05/17 06:05:52;;;;;;;38.28;20.48;;;;;;;16.16;71.33;94711.59;5034630;28;20106;-80
2023/05/17 06:08:18;;;;;;;56.72;20.55;;;;;;;16.32;70.80;94703.84;5038056;28;20039;-80
2023/05/17 06:10:44;;;;;;;45.78;19.70;;;;;;;16.40;71.97;94711.81;5036841;28;20040;-79
2023/05/17 06:13:11;;;;;;;38.28;17.08;;;;;;;16.36;70.53;94692.16;5028255;28;20426;-82
2023/05/17 06:15:36;;;;;;;34.80;16.60;;;;;;;16.44;71.23;94703.94;5031057;28;20044;-79
2023/05/17 06:18:02;;;;;;;35.80;16.50;;;;;;;16.56;70.84;94701.34;5034399;28;20440;-78
2023/05/17 06:20:28;;;;;;;37.08;16.98;;;;;;;16.42;69.69;94674.03;5035155;28;20029;-78
2023/05/17 06:22:53;;;;;;;39.90;17.33;;;;;;;16.84;70.53;94717.81;5033243;28;20057;-79
2023/05/17 06:25:18;;;;;;;37.65;15.90;;;;;;;16.75;68.81;94719.72;5035954;28;20028;-78
2023/05/17 06:27:44;;;;;;;33.58;16.05;;;;;;;16.70;70.64;94703.84;5034214;28;20358;-79
2023/05/17 06:30:10;;;;;;;31.23;14.45;;;;;;;16.85;70.56;94728.19;5035415;28;20106;-79
2023/05/17 06:32:35;;;;;;;27.83;14.82;;;;;;;16.87;68.94;94738.56;5032778;28;20037;-79
2023/05/17 06:35:01;;;;;;;28.30;13.13;;;;;;;17.05;68.64;94731.22;5013541;28;20052;-79
2023/05/17 06:37:27;;;;;;;26.42;14.57;;;;;;;16.63;69.87;94682.16;5028387;28;20426;-80
2023/05/17 06:39:52;;;;;;;32.15;14.95;;;;;;;16.72;70.24;94712.34;5015686;28;20044;-80
2023/05/17 06:42:18;;;;;;;29.83;14.00;;;;;;;17.00;68.82;94728.75;5035196;28;20072;-80
2023/05/17 06:44:43;;;;;;;34.25;14.88;;;;;;;16.84;69.18;94686.44;5038298;28;20098;-80
2023/05/17 06:47:09;;;;;;;28.55;14.77;;;;;;;17.01;69.62;94724.97;5037381;28;20152;-80
2023/05/17 06:49:36;;;;;;;30.70;14.05;;;;;;;16.65;69.85;94650.47;5032326;28;20275;-81
2023/05/17 06:52:04;;;;;;;26.67;14.57;;;;;;;16.66;69.59;94665.44;5036005;28;20147;-81
2023/05/17 06:54:30;;;;;;;26.65;13.10;;;;;;;16.83;68.96;94663.44;5027643;28;20296;-80
2023/05/17 06:57:00;;;;;;;30.63;14.82;;;;;;;16.98;68.45;94678.16;5017301;28;20029;-81
2023/05/17 06:59:26;;;;;;;28.15;14.00;;;;;;;17.19;67.80;94700.38;5040527;28;20029;-83
2023/05/17 07:01:55;;;;;;;26.48;14.57;;;;;;;17.44;68.37;94724.66;5042602;28;20090;-92
2023/05/17 07:04:21;;;;;;;37.33;15.68;;;;;;;16.92;70.32;94650.00;5050642;28;20042;-83
2023/05/17 07:06:46;;;;;;;26.95;14.82;;;;;;;17.50;69.31;94721.44;5041399;28;20404;-83
2023/05/17 07:09:12;;;;;;;40.17;16.75;;;;;;;17.63;69.31;94749.13;5039412;28;20450;-84
2023/05/17 07:11:38;;;;;;;28.63;16.20;;;;;;;17.64;68.42;94742.66;5031906;28;20037;-80
2023/05/17 07:14:03;;;;;;;33.20;15.35;;;;;;;17.59;69.08;94751.66;5032095;28;20098;-81
2023/05/17 07:16:29;;;;;;;26.95;14.45;;;;;;;16.98;69.46;94656.72;5029905;28;20526;-81
2023/05/17 07:18:55;;;;;;;30.83;14.73;;;;;;;17.54;69.15;94735.00;5034318;28;20037;-81
2023/05/17 07:21:22;;;;;;;36.50;15.50;;;;;;;17.23;69.55;94674.53;5036250;28;20064;-81
2023/05/17 07:23:50;;;;;;;31.20;14.70;;;;;;;17.30;68.54;94716.88;5037349;28;20048;-80
2023/05/17 07:26:19;;;;;;;31.00;14.95;;;;;;;17.36;68.26;94719.03;5034908;28;20037;-81
2023/05/17 07:28:45;;;;;;;24.95;14.77;;;;;;;17.01;68.31;94680.19;5034156;28;20633;-81
2023/05/17 07:31:10;;;;;;;30.52;14.23;;;;;;;17.33;69.10;94706.28;5037726;28;20037;-81
2023/05/17 07:33:36;;;;;;;33.33;14.68;;;;;;;17.44;68.84;94721.97;5034634;28;20123;-81
2023/05/17 07:36:02;;;;;;;29.85;15.15;;;;;;;17.30;68.22;94690.06;5036200;28;20044;-81
2023/05/17 07:38:28;;;;;;;37.72;15.30;;;;;;;17.73;68.25;94757.56;5035936;28;20037;-80
2023/05/17 07:40:53;;;;;;;31.33;14.48;;;;;;;17.53;68.41;94726.16;5038169;28;20040;-81
2023/05/17 07:43:19;;;;;;;24.80;13.27;;;;;;;17.37;66.91;94693.03;5036084;28;20079;-80
2023/05/17 07:45:44;;;;;;;32.17;15.10;;;;;;;18.01;67.32;94752.41;5032793;28;20037;-81
2023/05/17 07:48:10;;;;;;;32.28;15.27;;;;;;;17.71;67.42;94690.06;5035336;28;20032;-82
2023/05/17 07:50:35;;;;;;;31.85;17.92;;;;;;;17.86;67.48;94698.59;5037988;28;20032;-83
2023/05/17 07:53:00;;;;;;;34.20;17.45;;;;;;;18.00;67.78;94715.22;5033009;28;20194;-86
2023/05/17 07:55:26;;;;;;;44.05;17.02;;;;;;;17.49;66.78;94614.53;5034306;28;20029;-82
2023/05/17 07:57:52;;;;;;;29.20;16.67;;;;;;;17.94;65.70;94678.94;5037068;28;20037;-83
2023/05/17 08:00:18;;;;;;;27.63;15.57;;;;;;;18.37;65.44;94746.38;5042607;28;20028;-85
2023/05/17 08:02:45;;;;;;;41.05;16.92;;;;;;;18.07;66.10;94699.34;5026938;28;20499;-80
2023/05/17 08:05:10;;;;;;;35.10;16.38;;;;;;;18.66;65.51;94752.72;5034413;28;20032;-80
2023/05/17 08:07:36;;;;;;;32.25;16.35;;;;;;;18.35;66.45;94716.41;5031916;28;20304;-80
2023/05/17 08:10:01;;;;;;;36.83;14.30;;;;;;;18.69;65.83;94727.88;5035107;28;20119;-81
2023/05/17 08:12:27;;;;;;;25.30;15.68;;;;;;;18.90;64.86;94742.00;5034041;28;20033;-80
2023/05/17 08:14:52;;;;;;;29.50;15.43;;;;;;;18.83;64.41;94722.97;5036721;28;20032;-80
2023/05/17 08:17:18;;;;;;;38.17;16.88;;;;;;;18.51;66.04;94685.09;5038118;28;20090;-81
2023/05/17 08:19:46;;;;;;;26.92;14.50;;;;;;;18.99;64.39;94698.88;5035568;28;20686;-81
2023/05/17 08:22:11;;;;;;;33.50;15.82;;;;;;;19.39;64.05;94737.34;5039042;28;20459;-82
2023/05/17 08:24:37;;;;;;;34.55;17.30;;;;;;;19.18;63.54;94702.53;5037742;28;20087;-82
2023/05/17 08:27:02;;;;;;;32.45;16.95;;;;;;;19.46;63.33;94731.38;5034785;28;20128;-83
2023/05/17 08:29:28;;;;;;;30.67;17.02;;;;;;;19.63;62.26;94725.75;5034254;28;20029;-82
2023/05/17 08:31:53;;;;;;;28.75;15.48;;;;;;;19.77;61.45;94723.47;5036149;28;20560;-82
2023/05/17 08:34:19;;;;;;;40.67;17.15;;;;;;;19.77;60.36;94718.09;5035775;28;20060;-81
2023/05/17 08:36:46;;;;;;;33.17;15.75;;;;;;;19.74;61.16;94708.03;5055923;28;20481;-80
2023/05/17 08:39:11;;;;;;;35.25;16.60;;;;;;;20.10;61.22;94722.44;5057290;28;20029;-81
2023/05/17 08:41:37;;;;;;;29.20;15.00;;;;;;;19.90;61.62;94706.19;5030280;28;20134;-81
2023/05/17 08:44:05;;;;;;;31.40;15.98;;;;;;;20.04;61.70;94717.31;5033842;28;20063;-84
2023/05/17 08:46:31;;;;;;;29.23;15.07;;;;;;;20.46;60.70;94753.78;5036115;28;20415;-82
2023/05/17 08:49:00;;;;;;;30.27;14.90;;;;;;;20.41;60.03;94736.78;5035530;28;20060;-87
2023/05/17 08:51:26;;;;;;;26.33;13.95;;;;;;;20.60;60.00;94746.06;5027246;28;20116;-80
2023/05/17 08:53:52;;;;;;;31.85;16.05;;;;;;;20.35;59.91;94735.47;5032139;28;20033;-81
2023/05/17 08:56:20;;;;;;;37.60;14.05;;;;;;;20.11;59.83;94673.66;5029470;28;20752;-81
2023/05/17 08:58:53;;;;;;;27.88;14.50;;;;;;;20.21;59.19;94672.38;5028219;28;20025;-81
2023/05/17 09:01:20;;;;;;;28.63;13.63;;;;;;;20.54;58.81;94715.13;5033368;28;20517;-81
2023/05/17 09:03:49;;;;;;;26.67;14.45;;;;;;;20.38;58.95;94709.75;5028454;28;20032;-81
2023/05/17 09:06:24;;;;;;;27.05;14.38;;;;;;;20.56;59.21;94742.53;5035180;28;20508;-81
2023/05/17 09:08:53;;;;;;;29.10;14.35;;;;;;;20.25;59.37;94716.31;5037004;28;20041;-82
2023/05/17 09:11:31;;;;;;;40.97;15.60;;;;;;;20.23;59.53;94691.63;5039898;28;20029;-82
2023/05/17 09:14:03;;;;;;;31.85;15.65;;;;;;;20.41;60.14;94703.66;5028793;28;20064;-81
2023/05/17 09:16:34;;;;;;;28.92;15.68;;;;;;;20.71;59.51;94728.28;5037967;28;20039;-81
2023/05/17 09:19:00;;;;;;;39.08;16.65;;;;;;;20.60;58.72;94714.53;5036841;28;20100;-80
2023/05/17 09:21:27;;;;;;;29.00;15.00;;;;;;;20.55;58.98;94705.94;5032371;28;20041;-82
2023/05/17 09:23:54;;;;;;;34.47;14.70;;;;;;;20.73;58.93;94707.94;5031226;28;20048;-81
2023/05/17 09:26:21;;;;;;;26.83;13.65;;;;;;;20.73;59.17;94707.94;5034203;28;20128;-81
2023/05/17 09:28:47;;;;;;;30.30;14.80;;;;;;;20.68;58.52;94697.41;5036195;28;20623;-83
2023/05/17 09:31:15;;;;;;;22.35;13.68;;;;;;;20.62;57.95;94671.88;5035228;28;21186;-83
2023/05/17 09:33:48;;;;;;;28.90;13.40;;;;;;;21.11;57.61;94726.16;5033050;28;20090;-85
2023/05/17 09:36:22;;;;;;;31.80;12.77;;;;;;;19.91;57.48;94553.56;5041890;28;20033;-84
2023/05/17 09:38:52;;;;;;;28.33;11.70;;;;;;;21.04;57.06;94719.81;5035244;28;20040;-80
2023/05/17 09:41:17;;;;;;;25.75;12.32;;;;;;;20.70;57.32;94664.72;5027531;28;20093;-80
2023/05/17 09:43:43;;;;;;;35.13;12.38;;;;;;;20.63;57.70;94651.09;5031622;28;20037;-86
2023/05/17 09:46:08;;;;;;;24.55;11.13;;;;;;;21.37;57.41;94720.19;5038647;28;20885;-82
2023/05/17 09:48:37;;;;;;;20.58;10.00;;;;;;;21.43;57.00;94696.44;5037972;28;20033;-80
2023/05/17 09:51:03;;;;;;;26.48;12.38;;;;;;;21.74;57.26;94733.31;5032586;28;20108;-80
2023/05/17 09:53:30;;;;;;;31.00;11.40;;;;;;;21.63;55.83;94664.84;5040514;28;20475;-81
2023/05/17 09:56:00;;;;;;;32.40;11.65;;;;;;;21.79;55.14;94704.13;5034389;28;20057;-80
2023/05/17 09:58:30;;;;;;;32.30;11.55;;;;;;;21.84;56.64;94722.72;5035975;28;20029;-79
2023/05/17 10:01:02;;;;;;;27.90;11.35;;;;;;;21.78;54.95;94686.38;5038215;28;20041;-81
2023/05/17 10:03:46;;;;;;;19.45;10.52;;;;;;;21.95;54.50;94725.66;5038129;28;20032;-81
2023/05/17 10:06:14;;;;;;;23.77;10.73;;;;;;;22.12;54.20;94717.16;5039708;28;20124;-82
2023/05/17 10:08:46;;;;;;;25.55;9.57;;;;;;;21.33;55.55;94627.66;5039360;28;20574;-80
2023/05/17 10:11:11;;;;;;;29.23;9.88;;;;;;;21.73;54.49;94675.88;5035891;28;20353;-79
2023/05/17 10:13:48;;;;;;;25.45;10.73;;;;;;;21.99;54.77;94699.50;5037422;28;20084;-82
2023/05/17 10:16:15;;;;;;;32.83;10.00;;;;;;;21.69;55.38;94679.63;5039505;28;20052;-84
2023/05/17 10:18:41;;;;;;;38.88;10.27;;;;;;;21.64;55.17;94699.59;5049721;28;20033;-85
2023/05/17 10:21:07;;;;;;;24.17;8.38;;;;;;;21.28;54.49;94646.03;5034285;28;20036;-80
2023/05/17 10:23:34;;;;;;;28.90;9.95;;;;;;;21.32;54.14;94654.97;5056779;28;20083;-81
2023/05/17 10:26:01;;;;;;;23.98;9.65;;;;;;;21.04;55.24;94636.25;5045402;28;20096;-82
2023/05/17 10:28:29;;;;;;;20.48;9.32;;;;;;;20.74;55.79;94596.34;5042719;28;20085;-81
2023/05/17 10:30:56;;;;;;;26.75;10.13;;;;;;;20.97;56.50;94650.34;5029994;28;20534;-80
2023/05/17 10:33:22;;;;;;;23.92;9.85;;;;;;;21.11;56.48;94663.38;5025609;28;20032;-79
2023/05/17 10:35:49;;;;;;;26.08;8.65;;;;;;;20.65;56.44;94632.69;5032012;28;20800;-79
2023/05/17 10:38:16;;;;;;;20.63;8.90;;;;;;;21.03;56.00;94654.34;5037434;28;21066;-79
2023/05/17 10:40:44;;;;;;;22.17;8.98;;;;;;;20.50;56.67;94583.09;5036321;28;20759;-79
2023/05/17 10:43:11;;;;;;;27.23;9.25;;;;;;;20.58;56.82;94592.88;5029798;28;20096;-79
2023/05/17 10:45:37;;;;;;;24.55;9.93;;;;;;;20.94;56.55;94617.91;5028706;28;20033;-79
2023/05/17 10:48:06;;;;;;;24.33;9.90;;;;;;;20.73;57.05;94610.16;5012892;28;20045;-79
2023/05/17 10:50:41;;;;;;;22.10;8.48;;;;;;;20.83;56.29;94606.13;5037349;28;20066;-79
2023/05/17 10:53:10;;;;;;;19.15;9.15;;;;;;;20.52;56.63;94542.34;5034945;28;20024;-80
2023/05/17 10:55:44;;;;;;;21.73;9.50;;;;;;;20.76;57.56;94585.97;5038246;28;20503;-79
2023/05/17 10:58:18;;;;;;;23.35;9.82;;;;;;;20.78;57.43;94580.22;5055954;28;20120;-78
2023/05/17 11:00:47;;;;;;;33.80;10.40;;;;;;;20.46;58.23;94557.97;5038699;28;20047;-79
2023/05/17 11:03:21;;;;;;;23.52;9.10;;;;;;;20.53;57.57;94566.19;5035872;28;20101;-79
2023/05/17 11:06:14;;;;;;;28.73;10.18;;;;;;;20.66;57.50;94572.28;5036655;28;20148;-79
2023/05/17 11:08:46;;;;;;;24.42;9.32;;;;;;;20.78;56.57;94575.63;5027179;28;20029;-79
2023/05/17 11:11:19;;;;;;;22.50;9.20;;;;;;;20.49;56.95;94559.19;5022299;28;20100;-81
2023/05/17 11:13:55;;;;;;;25.60;8.77;;;;;;;20.91;56.37;94580.88;5024100;28;20029;-82
2023/05/17 11:16:36;;;;;;;22.30;9.68;;;;;;;20.21;56.71;94500.84;5033151;28;20417;-84
2023/05/17 11:19:09;;;;;;;18.92;8.70;;;;;;;20.74;57.07;94592.88;5046153;28;20123;-80